Time;durP1;ratioP1;P1;durP2;ratioP2;P2;SDS_P1;SDS_P2;PMS_P1;PMS_P2;Temp;Humidity;BMP_temperature;BMP_pressure;BME280_temperature;BME280_humidity;BME280_pressure;Samples;Min_cycle;Max_cycle;Signal;HPM_P1;HPM_P2
2024/02/02 00:01:44;;;;;;;11.52;2.20;;;;;;;4.99;74.29;101558.38;5021830;28;20054;-53
2024/02/02 00:04:13;;;;;;;8.18;0.95;;;;;;;5.01;74.96;101564.47;5005887;28;20521;-52
2024/02/02 00:06:40;;;;;;;9.73;1.52;;;;;;;5.06;74.39;101562.13;5002135;28;20647;-52
2024/02/02 00:09:07;;;;;;;10.45;1.48;;;;;;;5.07;74.10;101572.44;5002752;28;20053;-56
2024/02/02 00:11:34;;;;;;;12.00;1.95;;;;;;;5.12;73.73;101573.56;4999226;28;21730;-53
2024/02/02 00:14:01;;;;;;;13.70;3.80;;;;;;;5.16;74.41;101578.81;5000842;28;20060;-54
2024/02/02 00:16:28;;;;;;;9.85;1.60;;;;;;;5.21;74.00;101582.47;5001522;28;20048;-56
2024/02/02 00:18:54;;;;;;;8.43;2.30;;;;;;;5.26;74.41;101596.38;5001706;28;20127;-55
2024/02/02 00:21:21;;;;;;;5.53;0.93;;;;;;;5.29;73.56;101596.53;5006773;28;20128;-52
2024/02/02 00:23:48;;;;;;;8.60;1.58;;;;;;;5.33;73.78;101593.28;5019484;28;20502;-57
2024/02/02 00:26:15;;;;;;;7.90;2.13;;;;;;;5.36;74.97;101598.56;5010237;28;20050;-49
2024/02/02 00:28:41;;;;;;;8.70;2.38;;;;;;;5.40;74.05;101579.88;5000445;28;20057;-57
2024/02/02 00:31:08;;;;;;;9.13;1.77;;;;;;;5.44;74.91;101585.16;5002369;28;20057;-54
2024/02/02 00:33:35;;;;;;;6.50;1.35;;;;;;;5.45;74.10;101577.53;5009845;28;20060;-52
2024/02/02 00:36:03;;;;;;;7.13;2.42;;;;;;;5.47;74.44;101577.59;5020939;28;20496;-50
2024/02/02 00:38:30;;;;;;;10.98;1.05;;;;;;;5.47;73.98;101564.75;5017370;28;20742;-49
2024/02/02 00:40:57;;;;;;;14.52;1.25;;;;;;;5.49;73.79;101561.41;5000662;28;20503;-56
2024/02/02 00:43:24;;;;;;;5.40;1.10;;;;;;;5.51;73.97;101556.34;5001404;28;20045;-50
2024/02/02 00:45:52;;;;;;;6.00;1.85;;;;;;;5.53;74.60;101554.72;5001541;28;20072;-53
2024/02/02 00:48:20;;;;;;;3.95;1.35;;;;;;;5.56;73.58;101553.94;5001840;28;20057;-57
2024/02/02 00:50:47;;;;;;;9.82;1.98;;;;;;;5.56;74.43;101549.69;5007407;28;20056;-52
2024/02/02 00:53:14;;;;;;;7.32;1.52;;;;;;;5.56;73.68;101536.84;5018294;28;20055;-53
2024/02/02 00:55:40;;;;;;;9.27;1.25;;;;;;;5.57;74.73;101536.03;5023673;28;20101;-48
2024/02/02 00:58:07;;;;;;;10.55;2.13;;;;;;;5.58;74.48;101537.81;5028018;28;20054;-49
2024/02/02 01:00:35;;;;;;;7.95;2.30;;;;;;;5.58;74.32;101532.66;5020208;28;20064;-54
2024/02/02 01:03:02;;;;;;;6.10;1.50;;;;;;;5.60;73.70;101531.03;5023840;28;20089;-54
2024/02/02 01:05:31;;;;;;;8.40;1.70;;;;;;;5.59;74.77;101519.00;5020103;28;20103;-56
2024/02/02 01:07:58;;;;;;;5.65;2.08;;;;;;;5.63;74.97;101531.16;5015956;28;20839;-55
2024/02/02 01:10:25;;;;;;;9.27;1.45;;;;;;;5.65;73.33;101516.66;5017696;28;20425;-55
2024/02/02 01:12:52;;;;;;;7.10;1.67;;;;;;;5.67;73.56;101516.72;5026117;28;20057;-53
2024/02/02 01:15:21;;;;;;;10.95;2.17;;;;;;;5.69;74.40;101519.34;5024278;28;20054;-54
2024/02/02 01:17:48;;;;;;;6.40;2.33;;;;;;;5.70;75.02;101521.09;5019152;28;20157;-50
2024/02/02 01:20:15;;;;;;;9.48;1.50;;;;;;;5.72;74.99;101509.22;5022465;28;20061;-52
2024/02/02 01:22:42;;;;;;;7.30;1.70;;;;;;;5.74;74.88;101507.59;5013628;28;20451;-56
2024/02/02 01:25:09;;;;;;;4.97;1.85;;;;;;;5.77;74.22;101493.16;5022916;28;20050;-50
2024/02/02 01:27:36;;;;;;;7.68;1.52;;;;;;;5.77;74.46;101476.84;5026109;28;20537;-53
2024/02/02 01:30:04;;;;;;;5.97;1.67;;;;;;;5.77;74.15;101476.84;5031239;28;20067;-53
2024/02/02 01:32:32;;;;;;;6.45;1.10;;;;;;;5.79;74.21;101465.81;5017541;28;20049;-53
2024/02/02 01:34:59;;;;;;;11.38;2.35;;;;;;;5.82;74.83;101474.47;5020861;28;20053;-58
2024/02/02 01:37:26;;;;;;;6.65;1.67;;;;;;;5.80;74.39;101471.81;5022446;28;20053;-50
2024/02/02 01:39:53;;;;;;;4.63;1.25;;;;;;;5.79;74.83;101470.06;5022544;28;20064;-53
2024/02/02 01:42:19;;;;;;;7.10;2.47;;;;;;;5.83;75.20;101466.81;5020295;28;20053;-52
2024/02/02 01:44:46;;;;;;;4.93;1.10;;;;;;;5.83;74.66;101464.25;5025662;28;20116;-52
2024/02/02 01:47:13;;;;;;;11.82;1.05;;;;;;;5.85;74.37;101470.34;5025422;28;20095;-57
2024/02/02 01:49:40;;;;;;;9.90;1.45;;;;;;;5.86;75.52;101454.06;5018370;28;20057;-50
2024/02/02 01:52:07;;;;;;;6.20;1.73;;;;;;;5.88;75.41;101455.00;5022582;28;20786;-54
2024/02/02 01:54:35;;;;;;;9.73;1.88;;;;;;;5.88;74.47;101455.00;5023766;28;20056;-54
2024/02/02 01:57:02;;;;;;;5.47;1.92;;;;;;;5.88;75.20;101444.72;5011585;28;20133;-57
2024/02/02 01:59:29;;;;;;;8.02;2.10;;;;;;;5.89;76.30;101443.91;5023167;28;20053;-55
2024/02/02 02:01:57;;;;;;;5.22;1.55;;;;;;;5.90;75.62;101440.53;5026041;28;20434;-55
2024/02/02 02:04:24;;;;;;;8.27;1.88;;;;;;;5.90;76.89;101445.66;5023477;28;20050;-56
2024/02/02 02:06:51;;;;;;;5.60;1.23;;;;;;;5.88;75.81;101439.56;5024461;28;20164;-53
2024/02/02 02:09:18;;;;;;;10.68;1.65;;;;;;;5.95;76.54;101438.13;5018647;28;20053;-54
2024/02/02 02:11:45;;;;;;;6.75;1.75;;;;;;;5.98;75.36;101439.94;5015591;28;20058;-51
2024/02/02 02:14:12;;;;;;;6.90;1.40;;;;;;;5.96;76.88;101436.44;5018162;28;20057;-55
2024/02/02 02:16:39;;;;;;;11.57;2.97;;;;;;;6.00;77.14;101443.44;5024374;28;20060;-51
2024/02/02 02:19:06;;;;;;;9.95;2.70;;;;;;;6.04;76.76;101446.22;5015193;28;20046;-56
2024/02/02 02:21:33;;;;;;;2.78;1.80;;;;;;;6.06;75.36;101438.56;5022962;28;20109;-49
2024/02/02 02:24:01;;;;;;;8.90;2.30;;;;;;;6.10;76.90;101440.44;5015679;28;20054;-56
2024/02/02 02:26:29;;;;;;;10.82;2.25;;;;;;;6.09;76.46;101423.25;5014857;28;20069;-52
2024/02/02 02:28:56;;;;;;;7.22;2.40;;;;;;;6.11;76.36;101426.75;5014708;28;20061;-52
2024/02/02 02:31:23;;;;;;;13.77;2.88;;;;;;;6.15;75.40;101432.91;5016545;28;20099;-51
2024/02/02 02:33:50;;;;;;;10.18;2.10;;;;;;;6.13;75.88;101430.28;5026005;28;20050;-54
2024/02/02 02:36:18;;;;;;;14.05;3.72;;;;;;;6.13;77.29;101429.38;5021768;28;20053;-50
2024/02/02 02:38:45;;;;;;;10.68;1.70;;;;;;;6.15;76.96;101433.78;5025898;28;20100;-49
2024/02/02 02:41:12;;;;;;;8.40;3.17;;;;;;;6.14;76.19;101437.16;5020382;28;20545;-53
2024/02/02 02:43:39;;;;;;;13.80;2.30;;;;;;;6.13;77.94;101430.28;5027817;28;20053;-54
2024/02/02 02:46:06;;;;;;;9.98;1.85;;;;;;;6.11;76.95;101411.31;5027507;28;20041;-54
2024/02/02 02:48:34;;;;;;;9.60;2.10;;;;;;;6.19;76.17;101405.59;5023059;28;20041;-54
2024/02/02 02:51:01;;;;;;;9.15;2.55;;;;;;;6.12;77.88;101391.63;5027000;28;20103;-53
2024/02/02 02:53:27;;;;;;;10.35;1.92;;;;;;;6.15;78.03;101400.31;5017774;28;20076;-56
2024/02/02 02:55:54;;;;;;;8.00;3.72;;;;;;;6.19;76.72;101403.00;5020414;28;20045;-53
2024/02/02 02:58:21;;;;;;;8.30;1.75;;;;;;;6.13;79.34;101388.22;5017861;28;20049;-52
2024/02/02 03:00:48;;;;;;;12.48;2.65;;;;;;;6.20;78.55;101391.91;5024864;28;20112;-53
2024/02/02 03:03:14;;;;;;;5.80;2.13;;;;;;;6.22;78.29;101382.56;5026943;28;20080;-55
2024/02/02 03:05:41;;;;;;;7.03;2.40;;;;;;;6.21;77.67;101381.66;5025600;28;20080;-56
2024/02/02 03:08:08;;;;;;;5.53;1.60;;;;;;;6.17;79.26;101370.41;5020079;28;20054;-53
2024/02/02 03:10:35;;;;;;;4.55;2.10;;;;;;;6.18;79.72;101358.38;5022240;28;20163;-56
2024/02/02 03:13:03;;;;;;;8.27;2.20;;;;;;;6.25;79.57;101362.09;5021058;28;20049;-53
2024/02/02 03:15:31;;;;;;;11.15;1.98;;;;;;;6.32;78.61;101358.03;5025667;28;20049;-55
2024/02/02 03:17:58;;;;;;;8.82;2.47;;;;;;;6.34;78.05;101357.25;5026312;28;20077;-52
2024/02/02 03:20:26;;;;;;;9.73;1.67;;;;;;;6.30;78.74;101357.97;5021743;28;20107;-53
2024/02/02 03:22:54;;;;;;;11.05;2.30;;;;;;;6.34;78.94;101346.97;5025838;28;20056;-59
2024/02/02 03:25:21;;;;;;;6.35;1.70;;;;;;;6.32;78.98;101343.47;5019684;28;20160;-53
2024/02/02 03:27:48;;;;;;;8.95;2.35;;;;;;;6.32;80.57;101340.91;5021751;28;20510;-52
2024/02/02 03:30:15;;;;;;;5.53;1.55;;;;;;;6.36;79.38;101342.75;5023339;28;20053;-50
2024/02/02 03:32:44;;;;;;;8.30;1.67;;;;;;;6.41;79.66;101345.47;5028416;28;20697;-52
2024/02/02 03:35:12;;;;;;;5.90;2.15;;;;;;;6.40;79.79;101357.50;5025463;28;20043;-53
2024/02/02 03:37:38;;;;;;;8.85;1.65;;;;;;;6.42;79.56;101350.69;5009795;28;20049;-55
2024/02/02 03:40:06;;;;;;;4.40;1.70;;;;;;;6.48;79.22;101354.31;5018897;28;20049;-57
2024/02/02 03:42:34;;;;;;;3.80;1.23;;;;;;;6.52;79.95;101341.59;5021890;28;20505;-55
2024/02/02 03:45:01;;;;;;;6.05;1.60;;;;;;;6.54;79.02;101339.06;5022444;28;20085;-50
2024/02/02 03:47:28;;;;;;;8.10;1.45;;;;;;;6.55;80.06;101348.53;5025728;28;20418;-52
2024/02/02 03:49:55;;;;;;;5.05;1.90;;;;;;;6.59;79.73;101336.66;5026236;28;20529;-49
2024/02/02 03:52:23;;;;;;;3.72;1.55;;;;;;;6.58;81.25;101330.63;5021216;28;20068;-52
2024/02/02 03:54:52;;;;;;;6.57;2.40;;;;;;;6.66;80.37;101323.19;5019241;28;20049;-56
2024/02/02 03:57:18;;;;;;;4.60;2.35;;;;;;;6.71;81.09;101336.19;5020553;28;20065;-56
2024/02/02 03:59:45;;;;;;;4.78;2.13;;;;;;;6.71;80.71;101337.06;5019982;28;20054;-57
2024/02/02 04:02:12;;;;;;;3.42;1.88;;;;;;;6.79;79.95;101334.78;5026066;28;20054;-51
2024/02/02 04:04:39;;;;;;;6.88;2.72;;;;;;;6.81;79.84;101330.53;5025631;28;20068;-53
2024/02/02 04:07:07;;;;;;;3.45;1.55;;;;;;;6.82;81.74;101337.44;5023566;28;20144;-52
2024/02/02 04:09:34;;;;;;;4.43;1.65;;;;;;;6.92;80.04;101321.47;5023588;28;20054;-52
2024/02/02 04:12:02;;;;;;;2.63;1.42;;;;;;;6.93;81.68;101319.78;5019203;28;20057;-49
2024/02/02 04:14:30;;;;;;;7.30;2.70;;;;;;;6.99;80.69;101322.53;5019979;28;20045;-50
2024/02/02 04:16:57;;;;;;;4.13;2.08;;;;;;;7.00;82.13;101329.47;5025416;28;20053;-51
2024/02/02 04:19:24;;;;;;;7.20;2.22;;;;;;;7.07;80.68;101320.22;5030726;28;20123;-57
2024/02/02 04:21:50;;;;;;;3.50;2.20;;;;;;;7.11;81.25;101314.34;5021664;28;20049;-53
2024/02/02 04:24:17;;;;;;;2.83;1.60;;;;;;;7.13;81.17;101317.81;5022237;28;20060;-54
2024/02/02 04:26:44;;;;;;;4.43;2.03;;;;;;;7.19;80.99;101320.59;5023467;28;20045;-56
2024/02/02 04:29:11;;;;;;;6.43;2.38;;;;;;;7.24;81.08;101325.91;5026056;28;20053;-50
2024/02/02 04:31:37;;;;;;;4.90;1.95;;;;;;;7.26;81.76;101336.28;5022006;28;20521;-55
2024/02/02 04:34:04;;;;;;;4.95;1.92;;;;;;;7.31;80.53;101329.56;5017180;28;20887;-54
2024/02/02 04:36:31;;;;;;;6.38;1.80;;;;;;;7.33;81.77;101327.91;5023825;28;20050;-54
2024/02/02 04:38:58;;;;;;;4.43;2.38;;;;;;;7.35;80.42;101327.94;5022615;28;20056;-51
2024/02/02 04:41:24;;;;;;;4.18;1.95;;;;;;;7.37;80.26;101334.91;5016877;28;20518;-53
2024/02/02 04:43:51;;;;;;;1.88;1.08;;;;;;;7.33;81.30;101327.91;5014808;28;20046;-53
2024/02/02 04:46:18;;;;;;;6.05;1.63;;;;;;;7.38;82.15;101331.50;5018857;28;20522;-54
2024/02/02 04:48:45;;;;;;;4.88;2.15;;;;;;;7.43;81.34;101335.09;5024752;28;20045;-50
2024/02/02 04:51:12;;;;;;;5.78;1.92;;;;;;;7.45;80.38;101338.59;5020958;28;20776;-52
2024/02/02 04:53:38;;;;;;;7.72;1.80;;;;;;;7.40;81.43;101340.13;5024755;28;20132;-56
2024/02/02 04:56:05;;;;;;;6.25;2.65;;;;;;;7.43;81.64;101344.53;5021992;28;20046;-54
2024/02/02 04:58:32;;;;;;;3.65;2.25;;;;;;;7.44;81.58;101356.59;5021746;28;20075;-49
2024/02/02 05:00:59;;;;;;;7.00;3.13;;;;;;;7.46;81.60;101344.63;5024403;28;20049;-55
2024/02/02 05:03:26;;;;;;;5.03;2.60;;;;;;;7.48;81.24;101344.66;5022137;28;20072;-55
2024/02/02 05:05:53;;;;;;;5.30;3.05;;;;;;;7.52;81.06;101347.41;5019279;28;20577;-56
2024/02/02 05:08:20;;;;;;;6.50;2.42;;;;;;;7.52;80.57;101349.97;5018113;28;20124;-52
2024/02/02 05:10:47;;;;;;;6.35;2.78;;;;;;;7.55;81.16;101349.19;5021861;28;20061;-54
2024/02/02 05:13:14;;;;;;;5.32;2.67;;;;;;;7.56;80.45;101335.47;5020697;28;20060;-58
2024/02/02 05:15:42;;;;;;;4.60;2.67;;;;;;;7.54;81.29;101334.56;5020108;28;20138;-56
2024/02/02 05:18:10;;;;;;;4.00;2.22;;;;;;;7.55;80.42;101333.72;5022728;28;20041;-52
2024/02/02 05:20:38;;;;;;;6.05;3.15;;;;;;;7.56;81.49;101335.47;5019914;28;20054;-55
2024/02/02 05:23:05;;;;;;;3.13;1.85;;;;;;;7.53;80.85;101325.06;5015195;28;20064;-48
2024/02/02 05:25:32;;;;;;;7.07;2.65;;;;;;;7.55;81.53;101315.66;5015042;28;20052;-54
2024/02/02 05:27:58;;;;;;;6.18;1.85;;;;;;;7.56;80.70;101325.16;5020923;28;20076;-55
2024/02/02 05:30:25;;;;;;;3.63;1.92;;;;;;;7.46;81.89;101324.88;5022773;28;20191;-51
2024/02/02 05:32:52;;;;;;;6.03;2.28;;;;;;;7.56;81.98;101325.16;5019325;28;20419;-54
2024/02/02 05:35:19;;;;;;;4.90;3.13;;;;;;;7.57;82.56;101319.19;5021111;28;20057;-54
2024/02/02 05:37:45;;;;;;;3.65;1.80;;;;;;;7.58;81.48;101323.50;5024979;28;20059;-58
2024/02/02 05:40:12;;;;;;;4.50;2.38;;;;;;;7.60;81.66;101311.50;5025310;28;20065;-52
2024/02/02 05:42:39;;;;;;;4.32;2.60;;;;;;;7.63;81.08;101316.75;5025719;28;20530;-52
2024/02/02 05:45:06;;;;;;;6.32;2.15;;;;;;;7.65;81.12;101315.13;5025760;28;20091;-53
2024/02/02 05:47:33;;;;;;;4.68;2.35;;;;;;;7.66;81.51;101311.72;5027093;28;20045;-51
2024/02/02 05:50:00;;;;;;;5.45;2.50;;;;;;;7.71;81.34;101309.28;5027660;28;20394;-54
2024/02/02 05:52:27;;;;;;;5.13;2.58;;;;;;;7.70;82.21;101308.38;5019644;28;20148;-50
2024/02/02 05:54:55;;;;;;;5.20;2.90;;;;;;;7.75;81.10;101311.09;5023244;28;20045;-57
2024/02/02 05:57:22;;;;;;;6.28;2.78;;;;;;;7.76;81.64;101301.66;5025676;28;20096;-53
2024/02/02 05:59:49;;;;;;;7.03;3.17;;;;;;;7.75;82.52;101302.50;5027758;28;20081;-51
2024/02/02 06:02:16;;;;;;;6.10;2.53;;;;;;;7.78;81.59;101297.41;5025699;28;20045;-52
2024/02/02 06:04:42;;;;;;;8.80;3.38;;;;;;;7.75;82.59;101289.59;5024253;28;20045;-52
2024/02/02 06:07:09;;;;;;;6.05;3.03;;;;;;;7.69;83.45;101286.00;5032961;28;20457;-50
2024/02/02 06:09:36;;;;;;;5.65;2.97;;;;;;;7.69;83.59;101285.13;5027602;28;20135;-56
2024/02/02 06:12:03;;;;;;;6.05;2.28;;;;;;;7.69;83.62;101286.00;5026017;28;20463;-55
2024/02/02 06:14:30;;;;;;;4.20;2.30;;;;;;;7.66;84.17;101270.44;5028560;28;20140;-57
2024/02/02 06:16:57;;;;;;;7.18;3.25;;;;;;;7.71;83.21;101278.31;5018462;28;20055;-54
2024/02/02 06:19:24;;;;;;;6.95;3.30;;;;;;;7.68;83.80;101273.97;5028830;28;20551;-58
2024/02/02 06:21:51;;;;;;;6.50;3.63;;;;;;;7.75;82.64;101284.44;5020087;28;20050;-52
2024/02/02 06:24:17;;;;;;;6.85;2.60;;;;;;;7.71;82.93;101271.44;5032351;28;20140;-55
2024/02/02 06:26:44;;;;;;;9.45;3.70;;;;;;;7.77;83.03;101278.47;5025954;28;20037;-54
2024/02/02 06:29:11;;;;;;;6.90;3.75;;;;;;;7.76;82.66;101291.34;5030777;28;20053;-53
2024/02/02 06:31:38;;;;;;;5.53;2.95;;;;;;;7.74;83.03;101288.75;5028207;28;20048;-52
2024/02/02 06:34:08;;;;;;;7.18;2.95;;;;;;;7.81;82.90;101288.06;5032873;28;20679;-57
2024/02/02 06:36:36;;;;;;;8.55;4.05;;;;;;;7.82;83.13;101282.09;5030172;28;20045;-55
2024/02/02 06:39:03;;;;;;;8.90;4.10;;;;;;;7.84;83.07;101284.72;5033192;28;20130;-61
2024/02/02 06:41:31;;;;;;;5.80;3.47;;;;;;;7.81;83.52;101284.63;5022270;28;20079;-56
2024/02/02 06:43:57;;;;;;;7.50;3.03;;;;;;;7.82;82.64;101283.78;5027310;28;20059;-55
2024/02/02 06:46:24;;;;;;;7.05;3.30;;;;;;;7.80;83.70;101283.72;5019064;28;20041;-54
2024/02/02 06:48:52;;;;;;;7.47;2.50;;;;;;;7.78;83.04;101279.38;5027006;28;20048;-55
2024/02/02 06:51:20;;;;;;;5.78;2.72;;;;;;;7.72;84.95;101280.06;5027682;28;20406;-52
2024/02/02 06:53:47;;;;;;;7.07;2.88;;;;;;;7.78;83.72;101279.38;5032011;28;20045;-56
2024/02/02 06:56:34;;;;;;;6.97;3.50;;;;;;;7.70;84.61;101272.28;5017826;28;20041;-52
2024/02/02 06:59:01;;;;;;;7.90;3.67;;;;;;;7.76;83.59;101273.28;5025177;28;20148;-56
2024/02/02 07:01:28;;;;;;;8.35;3.70;;;;;;;7.76;84.39;101281.00;5024679;28;20061;-58
2024/02/02 07:03:55;;;;;;;8.52;3.95;;;;;;;7.79;84.20;101291.44;5027590;28;20058;-53
2024/02/02 07:06:22;;;;;;;5.85;2.72;;;;;;;7.77;83.55;101288.81;5029509;28;20047;-50
2024/02/02 07:08:50;;;;;;;7.22;3.08;;;;;;;7.81;83.81;101294.94;5026895;28;20048;-54
2024/02/02 07:13:53;;;;;;;8.68;5.05;;;;;;;7.87;84.12;101289.94;5026971;27;20414;-51
2024/02/02 07:16:27;;;;;;;7.20;5.13;;;;;;;7.91;84.15;101286.59;5005375;28;20088;-56
2024/02/02 07:18:55;;;;;;;9.60;5.40;;;;;;;7.91;84.87;101291.78;5001047;28;20503;-54
2024/02/02 07:21:31;;;;;;;11.60;5.68;;;;;;;7.98;84.57;101298.00;5012710;28;20492;-57
2024/02/02 07:23:58;;;;;;;9.65;6.22;;;;;;;8.03;83.88;101290.38;5004896;28;20069;-56
2024/02/02 07:26:29;;;;;;;7.75;5.47;;;;;;;8.04;84.30;101287.84;4997017;28;20391;-59
2024/02/02 07:28:57;;;;;;;5.88;3.70;;;;;;;8.09;84.17;101275.06;5011482;28;20062;-51
2024/02/02 07:34:37;;;;;;;5.72;2.55;;;;;;;8.13;84.51;101276.91;5030185;28;20401;-56
2024/02/02 07:37:10;;;;;;;6.65;3.45;;;;;;;8.19;84.15;101287.41;5002739;28;20136;-52
2024/02/02 07:39:36;;;;;;;7.30;3.28;;;;;;;8.26;83.83;101266.91;5006281;28;20145;-54
2024/02/02 07:42:03;;;;;;;5.05;2.13;;;;;;;8.20;84.87;101273.66;5006662;28;20127;-56
2024/02/02 07:44:31;;;;;;;6.68;3.03;;;;;;;8.28;84.82;101254.91;5004356;28;20511;-58
2024/02/02 07:46:58;;;;;;;8.40;3.13;;;;;;;8.33;84.68;101250.75;5001434;28;20057;-56
2024/02/02 07:49:25;;;;;;;5.13;2.50;;;;;;;8.28;85.36;101250.59;4997014;28;20049;-52
2024/02/02 07:51:51;;;;;;;4.15;2.50;;;;;;;8.23;85.78;101247.94;4993220;28;20144;-51
2024/02/02 07:54:18;;;;;;;7.28;2.95;;;;;;;8.27;84.97;101248.00;4991974;28;20054;-53
2024/02/02 07:56:45;;;;;;;5.07;2.13;;;;;;;8.25;86.04;101244.50;4992603;28;20054;-52
2024/02/02 07:59:12;;;;;;;7.97;3.00;;;;;;;8.29;86.17;101259.25;4994873;28;20046;-53
2024/02/02 08:01:41;;;;;;;5.93;2.80;;;;;;;8.33;85.19;101264.53;4996443;28;20045;-56
2024/02/02 08:04:08;;;;;;;5.70;2.67;;;;;;;8.35;85.21;101257.69;4997134;28;20168;-54
2024/02/02 08:06:35;;;;;;;6.13;2.78;;;;;;;8.41;85.68;101246.63;4990763;28;20054;-50
2024/02/02 08:09:01;;;;;;;5.50;2.58;;;;;;;8.44;84.95;101240.72;4993113;28;20476;-55
2024/02/02 08:11:35;;;;;;;8.30;3.20;;;;;;;8.49;84.52;101249.44;4993885;28;20057;-55
2024/02/02 08:14:02;;;;;;;5.15;2.88;;;;;;;8.52;84.80;101253.78;4990971;28;20145;-52
2024/02/02 08:16:29;;;;;;;6.78;1.90;;;;;;;8.49;85.12;101257.19;4989441;28;20065;-54
2024/02/02 08:18:56;;;;;;;5.28;2.13;;;;;;;8.48;85.67;101253.72;4993507;28;20527;-57
2024/02/02 08:21:25;;;;;;;5.10;2.45;;;;;;;8.55;85.65;101259.94;4991903;28;20050;-54
2024/02/02 08:23:52;;;;;;;5.38;2.40;;;;;;;8.59;85.27;101266.94;4989250;28;20038;-51
2024/02/02 08:26:18;;;;;;;5.43;2.25;;;;;;;8.67;84.82;101280.03;4994893;28;20053;-56
2024/02/02 08:28:45;;;;;;;4.38;2.00;;;;;;;8.70;84.89;101285.28;4986479;28;20057;-55
2024/02/02 08:31:22;;;;;;;2.67;1.70;;;;;;;8.76;84.53;101284.56;4994111;28;20042;-57
2024/02/02 08:33:49;;;;;;;4.72;2.72;;;;;;;8.81;84.58;101289.84;4992580;28;20523;-52
2024/02/02 08:36:18;;;;;;;7.30;1.92;;;;;;;8.91;84.22;101289.22;4987172;28;20060;-60
2024/02/02 08:38:45;;;;;;;8.90;2.75;;;;;;;8.98;83.82;101298.88;4997080;28;20054;-54
2024/02/02 08:41:13;;;;;;;4.03;1.60;;;;;;;9.04;84.06;101294.69;4994784;28;20073;-54
2024/02/02 08:43:41;;;;;;;5.60;2.40;;;;;;;9.09;83.36;101303.44;4994454;28;20088;-54
2024/02/02 08:46:10;;;;;;;5.65;2.25;;;;;;;9.14;83.39;101309.56;4981791;28;20137;-53
2024/02/02 08:54:33;;;;;;;5.07;2.38;;;;;;;9.66;84.03;101316.75;5015793;28;20423;-55
2024/02/02 08:59:43;;;;;;;6.00;2.50;;;;;;;10.91;81.21;101313.94;5034032;27;20398;-57
2024/02/02 09:02:39;;;;;;;4.15;2.13;;;;;;;10.90;79.54;101326.03;5010623;28;20068;-54
2024/02/02 09:05:16;;;;;;;3.58;1.65;;;;;;;10.70;79.78;101323.09;5017186;28;20183;-55
2024/02/02 09:07:48;;;;;;;4.20;2.10;;;;;;;10.56;79.85;101306.41;5015888;28;20053;-57
2024/02/02 09:13:01;;;;;;;4.45;2.65;;;;;;;10.27;78.98;101302.44;5030712;28;20869;-54
2024/02/02 09:15:32;;;;;;;3.67;2.85;;;;;;;10.13;79.87;101289.22;4981391;28;20054;-54
2024/02/02 09:18:00;;;;;;;7.45;2.70;;;;;;;10.05;80.46;101293.38;4993441;28;20096;-51
2024/02/02 09:23:17;;;;;;;4.00;3.13;;;;;;;9.95;80.74;101288.03;5020069;28;20414;-57
2024/02/02 09:25:45;;;;;;;3.88;2.72;;;;;;;9.91;80.75;101291.41;5003330;28;20053;-52
2024/02/02 09:31:06;;;;;;;2.75;0.73;;;;;;;9.74;80.73;101289.34;5051254;28;20394;-47
2024/02/02 09:36:11;;;;;;;5.30;2.45;;;;;;;9.79;80.86;101291.16;5061354;27;20447;-53
2024/02/02 09:38:38;;;;;;;2.65;2.40;;;;;;;9.77;81.04;101288.53;5070758;28;20048;-51
2024/02/02 09:46:27;;;;;;;2.05;1.27;;;;;;;9.76;80.80;101285.06;5048592;27;20425;-51
2024/02/02 09:57:13;;;;;;;3.00;2.00;;;;;;;9.82;80.28;101298.97;5041688;27;20417;-51
2024/02/02 10:08:24;;;;;;;3.22;2.92;;;;;;;9.83;80.42;101303.31;5032944;28;20407;-58
2024/02/02 10:11:05;;;;;;;3.08;2.78;;;;;;;9.87;80.52;101299.94;4974540;28;20054;-58
2024/02/02 10:22:27;;;;;;;2.83;1.10;;;;;;;9.85;80.04;101301.63;5060625;28;20753;-58
2024/02/02 10:30:43;;;;;;;4.28;3.05;;;;;;;9.85;80.46;101317.13;5015612;28;20399;-51
2024/02/02 10:33:34;;;;;;;3.75;2.28;;;;;;;9.80;80.44;101313.59;4998522;28;20046;-53
2024/02/02 10:49:46;;;;;;;2.35;1.83;;;;;;;9.92;80.91;101324.19;5099681;27;20399;-55
2024/02/02 10:52:31;;;;;;;2.40;0.98;;;;;;;9.97;80.93;101327.75;5037081;28;20072;-55
2024/02/02 10:55:25;;;;;;;3.58;1.90;;;;;;;10.02;80.11;101315.78;5035003;28;20070;-59
2024/02/02 11:00:51;;;;;;;3.40;1.42;;;;;;;10.05;80.55;101314.09;5042735;28;20409;-54
2024/02/02 11:03:34;;;;;;;2.95;1.60;;;;;;;10.12;79.73;101322.00;5012496;28;20076;-54
2024/02/02 11:06:18;;;;;;;3.60;1.63;;;;;;;10.15;79.79;101326.38;5001137;28;20060;-53
2024/02/02 11:08:54;;;;;;;4.70;1.50;;;;;;;10.20;79.65;101314.38;5000525;28;20066;-54
2024/02/02 11:11:25;;;;;;;2.10;1.40;;;;;;;10.24;79.76;101313.59;4999567;28;20400;-57
2024/02/02 11:19:50;;;;;;;2.97;2.63;;;;;;;10.34;79.97;101306.03;5046243;28;20424;-56
2024/02/02 11:22:24;;;;;;;2.72;2.30;;;;;;;10.42;79.22;101299.25;4998675;28;20495;-49
2024/02/02 11:25:13;;;;;;;4.15;3.08;;;;;;;10.45;78.78;101309.72;4997135;28;20057;-50
2024/02/02 11:27:53;;;;;;;3.83;3.38;;;;;;;10.52;79.86;101302.91;5013338;28;20046;-50
2024/02/02 11:30:35;;;;;;;2.42;1.20;;;;;;;10.54;79.70;101298.66;4999295;28;20405;-56
2024/02/02 11:33:32;;;;;;;3.80;2.45;;;;;;;10.59;79.02;101297.00;5003957;28;20049;-55
2024/02/02 11:42:01;;;;;;;2.80;1.65;;;;;;;10.70;79.23;101284.22;5044066;27;20418;-54
2024/02/02 11:44:29;;;;;;;3.80;3.03;;;;;;;10.76;78.32;101286.91;5036139;28;20056;-55
2024/02/02 11:46:58;;;;;;;4.22;1.90;;;;;;;10.82;79.05;101283.56;5039059;28;20136;-51
2024/02/02 11:49:31;;;;;;;3.20;1.83;;;;;;;10.89;78.92;101281.94;5040315;28;20045;-55
2024/02/02 11:52:05;;;;;;;3.97;2.15;;;;;;;10.93;78.67;101273.34;5037082;28;20103;-56
2024/02/02 11:54:46;;;;;;;2.83;2.28;;;;;;;11.00;79.04;101272.59;5040762;28;20180;-55
2024/02/02 11:57:18;;;;;;;4.45;2.08;;;;;;;11.03;78.99;101276.97;5040452;28;20049;-51
2024/02/02 11:59:49;;;;;;;3.25;1.75;;;;;;;11.10;78.29;101277.91;5068674;28;20076;-53
2024/02/02 12:05:18;;;;;;;3.03;2.72;;;;;;;11.14;77.54;101279.69;5039964;28;20940;-54
2024/02/02 12:08:13;;;;;;;4.25;3.22;;;;;;;11.11;77.92;101274.50;5010427;28;20053;-57
2024/02/02 12:10:42;;;;;;;4.28;3.05;;;;;;;11.14;77.91;101284.88;5042855;28;20056;-56
2024/02/02 12:13:16;;;;;;;4.15;3.45;;;;;;;11.16;77.26;101278.00;5023017;28;20125;-58
2024/02/02 12:15:44;;;;;;;3.30;2.28;;;;;;;11.08;77.24;101274.44;5015882;28;20541;-52
2024/02/02 12:18:12;;;;;;;4.05;3.58;;;;;;;11.18;76.74;101271.16;5013744;28;20507;-56
2024/02/02 12:20:40;;;;;;;2.75;2.42;;;;;;;11.19;76.74;101270.28;5012338;28;20161;-55
2024/02/02 12:23:09;;;;;;;3.85;3.55;;;;;;;11.30;76.91;101267.84;5017054;28;20103;-57
2024/02/02 12:25:36;;;;;;;3.38;3.08;;;;;;;11.38;76.91;101275.75;5020428;28;20058;-57
2024/02/02 12:28:07;;;;;;;3.05;2.75;;;;;;;11.50;76.90;101268.13;5013070;28;20142;-54
2024/02/02 12:30:35;;;;;;;1.90;1.02;;;;;;;11.62;77.70;101262.19;5016600;28;20513;-50
2024/02/02 12:33:04;;;;;;;4.03;3.65;;;;;;;11.66;76.25;101265.72;5020619;28;20053;-59
2024/02/02 12:35:32;;;;;;;3.33;3.03;;;;;;;11.69;76.98;101269.19;5015182;28;20211;-57
2024/02/02 12:37:58;;;;;;;3.17;2.88;;;;;;;11.74;76.64;101273.56;5016480;28;20060;-48
2024/02/02 12:40:25;;;;;;;2.90;2.60;;;;;;;11.79;76.76;101269.34;5017984;28;20115;-56
2024/02/02 12:42:58;;;;;;;3.20;2.85;;;;;;;11.81;75.77;101268.50;5020097;28;20192;-53
2024/02/02 12:45:26;;;;;;;3.33;3.03;;;;;;;11.81;75.77;101257.22;5017188;28;20049;-56
2024/02/02 12:47:53;;;;;;;3.95;3.53;;;;;;;11.86;75.49;101265.06;5020795;28;20050;-52
2024/02/02 12:50:26;;;;;;;3.95;3.03;;;;;;;11.82;76.23;101272.81;5020959;28;20056;-57
2024/02/02 12:52:54;;;;;;;5.07;3.15;;;;;;;11.81;75.27;101260.69;5024937;28;20046;-53
2024/02/02 12:55:21;;;;;;;4.13;3.72;;;;;;;11.79;76.37;101272.78;5023432;28;20053;-55
2024/02/02 12:57:48;;;;;;;2.70;2.50;;;;;;;11.80;75.82;101261.56;5021761;28;20066;-55
2024/02/02 13:00:15;;;;;;;3.40;3.05;;;;;;;11.78;76.20;101262.38;5022458;28;20104;-55
2024/02/02 13:02:45;;;;;;;4.00;3.20;;;;;;;11.81;75.27;101267.59;5020549;28;20099;-57
2024/02/02 13:05:16;;;;;;;2.88;2.67;;;;;;;11.67;75.48;101263.13;5017372;28;20068;-52
2024/02/02 13:07:48;;;;;;;2.53;2.33;;;;;;;11.68;75.35;101261.41;5020201;28;20046;-55
2024/02/02 13:10:33;;;;;;;3.13;2.88;;;;;;;11.69;75.03;101257.97;5018371;28;20430;-56
2024/02/02 13:15:55;;;;;;;2.05;1.35;;;;;;;11.65;74.91;101235.44;5080787;27;20114;-50